Time;durP1;ratioP1;P1;durP2;ratioP2;P2;SDS_P1;SDS_P2;PMS_P1;PMS_P2;Temp;Humidity;BMP_temperature;BMP_pressure;BME280_temperature;BME280_humidity;BME280_pressure;Samples;Min_cycle;Max_cycle;Signal;HPM_P1;HPM_P2
2023/06/12 00:00:25;;;;;;;;;;;;;;;;;;1036977;28;4028;-51
2023/06/12 00:01:17;;;;;;;;;;;;;;;;;;1040863;28;3599;-53
2023/06/12 00:02:07;;;;;;;;;;;;;;;;;;1034724;28;4043;-54
2023/06/12 00:02:38;;;;;;;;;;;;;;;;;;1037243;28;8084;-56
2023/06/12 00:03:08;;;;;;;;;;;;;;;;;;1042175;28;3022;-55
2023/06/12 00:03:42;;;;;;;;;;;;;;;;;;1042769;28;4122;-55
2023/06/12 00:04:13;;;;;;;;;;;;;;;;;;1042313;28;3216;-56
2023/06/12 00:04:44;;;;;;;;;;;;;;;;;;1042401;28;3940;-54
2023/06/12 00:05:19;;;;;;;;;;;;;;;;;;1042300;28;3461;-56
2023/06/12 00:05:50;;;;;;;;;;;;;;;;;;1041492;28;4894;-53
2023/06/12 00:06:21;;;;;;;;;;;;;;;;;;1039304;28;3422;-55
2023/06/12 00:06:51;;;;;;;;;;;;;;;;;;1040516;28;3978;-55
2023/06/12 00:07:21;;;;;;;;;;;;;;;;;;1041832;28;3513;-53
2023/06/12 00:07:56;;;;;;;;;;;;;;;;;;1039651;28;4776;-57
2023/06/12 00:08:27;;;;;;;;;;;;;;;;;;1042373;28;4936;-56
2023/06/12 00:08:57;;;;;;;;;;;;;;;;;;1039915;28;1730;-53
2023/06/12 00:09:28;;;;;;;;;;;;;;;;;;1038664;28;4410;-54
2023/06/12 00:09:58;;;;;;;;;;;;;;;;;;1037547;28;3163;-51
2023/06/12 00:10:29;;;;;;;;;;;;;;;;;;1038049;28;4028;-55
2023/06/12 00:10:59;;;;;;;;;;;;;;;;;;1042065;28;3462;-56
2023/06/12 00:11:30;;;;;;;;;;;;;;;;;;1042592;28;3761;-53
2023/06/12 00:12:00;;;;;;;;;;;;;;;;;;1037080;28;3319;-57
2023/06/12 00:12:31;;;;;;;;;;;;;;;;;;1038422;28;3895;-53
2023/06/12 00:13:01;;;;;;;;;;;;;;;;;;1043030;28;3757;-52
2023/06/12 00:13:32;;;;;;;;;;;;;;;;;;1042410;28;4022;-56
2023/06/12 00:14:02;;;;;;;;;;;;;;;;;;1042946;28;3442;-55
2023/06/12 00:14:32;;;;;;;;;;;;;;;;;;1039833;28;4034;-56
2023/06/12 00:15:03;;;;;;;;;;;;;;;;;;1039924;28;3688;-54
2023/06/12 00:15:34;;;;;;;;;;;;;;;;;;1041009;28;3931;-54
2023/06/12 00:16:04;;;;;;;;;;;;;;;;;;1039662;28;3452;-56
2023/06/12 00:16:37;;;;;;;;;;;;;;;;;;1039806;28;4149;-52
2023/06/12 00:17:07;;;;;;;;;;;;;;;;;;1042167;28;3512;-55
2023/06/12 00:17:38;;;;;;;;;;;;;;;;;;1040949;28;3887;-58
2023/06/12 00:18:08;;;;;;;;;;;;;;;;;;1042317;28;3402;-53
2023/06/12 00:18:39;;;;;;;;;;;;;;;;;;1040965;28;4058;-58
2023/06/12 00:19:09;;;;;;;;;;;;;;;;;;1039024;28;1874;-55
2023/06/12 00:19:40;;;;;;;;;;;;;;;;;;1039165;28;3992;-54
2023/06/12 00:20:10;;;;;;;;;;;;;;;;;;1039216;28;2857;-51
2023/06/12 00:20:41;;;;;;;;;;;;;;;;;;1040785;28;5142;-52
2023/06/12 00:21:11;;;;;;;;;;;;;;;;;;1041799;28;3454;-53
2023/06/12 00:21:42;;;;;;;;;;;;;;;;;;1040535;28;3851;-56
2023/06/12 00:22:12;;;;;;;;;;;;;;;;;;1037202;28;3366;-55
2023/06/12 00:22:43;;;;;;;;;;;;;;;;;;1038955;28;4171;-54
2023/06/12 00:23:13;;;;;;;;;;;;;;;;;;1045293;28;1667;-55
2023/06/12 00:23:44;;;;;;;;;;;;;;;;;;1038482;28;4438;-55
2023/06/12 00:24:14;;;;;;;;;;;;;;;;;;1039099;28;3469;-55
2023/06/12 00:24:44;;;;;;;;;;;;;;;;;;1037197;28;4280;-53
2023/06/12 00:25:14;;;;;;;;;;;;;;;;;;1039593;28;1670;-56
2023/06/12 00:25:45;;;;;;;;;;;;;;;;;;1041935;28;3878;-56
2023/06/12 00:26:15;;;;;;;;;;;;;;;;;;1042687;28;3429;-54
2023/06/12 00:26:45;;;;;;;;;;;;;;;;;;1040547;28;3988;-54
2023/06/12 00:27:16;;;;;;;;;;;;;;;;;;1043946;28;2804;-56
2023/06/12 00:27:46;;;;;;;;;;;;;;;;;;1037690;28;4014;-55
2023/06/12 00:28:16;;;;;;;;;;;;;;;;;;1037889;28;1859;-53
2023/06/12 00:28:47;;;;;;;;;;;;;;;;;;1042560;28;3911;-51
2023/06/12 00:29:17;;;;;;;;;;;;;;;;;;1043217;28;3099;-54
2023/06/12 00:29:48;;;;;;;;;;;;;;;;;;1041581;28;4114;-54
2023/06/12 00:30:18;;;;;;;;;;;;;;;;;;1042878;28;3396;-57
2023/06/12 00:30:49;;;;;;;;;;;;;;;;;;1043150;28;3867;-54
2023/06/12 00:31:19;;;;;;;;;;;;;;;;;;1043588;28;1718;-54
2023/06/12 00:31:50;;;;;;;;;;;;;;;;;;1042440;28;4214;-56
2023/06/12 00:32:20;;;;;;;;;;;;;;;;;;1042570;28;3021;-57
2023/06/12 00:32:50;;;;;;;;;;;;;;;;;;1039150;28;3929;-52
2023/06/12 00:33:21;;;;;;;;;;;;;;;;;;1039783;28;1694;-56
2023/06/12 00:33:51;;;;;;;;;;;;;;;;;;1041979;28;3934;-53
2023/06/12 00:34:21;;;;;;;;;;;;;;;;;;1042313;28;2088;-53
2023/06/12 00:34:51;;;;;;;;;;;;;;;;;;1041261;28;3819;-55
2023/06/12 00:35:22;;;;;;;;;;;;;;;;;;1038611;28;4181;-50
2023/06/12 00:35:52;;;;;;;;;;;;;;;;;;1041349;28;3473;-53
2023/06/12 00:36:22;;;;;;;;;;;;;;;;;;1042745;28;4019;-57
2023/06/12 00:36:53;;;;;;;;;;;;;;;;;;1042279;28;3654;-53
2023/06/12 00:37:24;;;;;;;;;;;;;;;;;;1039420;28;4098;-56
2023/06/12 00:37:55;;;;;;;;;;;;;;;;;;1041540;28;3804;-53
2023/06/12 00:38:25;;;;;;;;;;;;;;;;;;1039949;28;4174;-52
2023/06/12 00:38:55;;;;;;;;;;;;;;;;;;1044353;28;2437;-57
2023/06/12 00:39:26;;;;;;;;;;;;;;;;;;1042177;28;3951;-54
2023/06/12 00:39:56;;;;;;;;;;;;;;;;;;1038529;28;3578;-55
2023/06/12 00:40:26;;;;;;;;;;;;;;;;;;1035565;28;4052;-51
2023/06/12 00:40:57;;;;;;;;;;;;;;;;;;1042221;28;3653;-53
2023/06/12 00:41:27;;;;;;;;;;;;;;;;;;1042047;28;4082;-53
2023/06/12 00:41:57;;;;;;;;;;;;;;;;;;1039046;28;4091;-53
2023/06/12 00:42:35;;;;;;;;;;;;;;;;;;1037241;28;4205;-56
2023/06/12 00:43:05;;;;;;;;;;;;;;;;;;1033030;28;5047;-54
2023/06/12 00:43:35;;;;;;;;;;;;;;;;;;1036656;28;4020;-56
2023/06/12 00:44:06;;;;;;;;;;;;;;;;;;1036449;28;3397;-55
2023/06/12 00:44:36;;;;;;;;;;;;;;;;;;1039254;28;4130;-58
2023/06/12 00:45:07;;;;;;;;;;;;;;;;;;1035920;28;3727;-55
2023/06/12 00:45:38;;;;;;;;;;;;;;;;;;1037118;28;4177;-55
2023/06/12 00:46:08;;;;;;;;;;;;;;;;;;1034988;28;3746;-55
2023/06/12 00:46:39;;;;;;;;;;;;;;;;;;1040572;28;4515;-51
2023/06/12 00:47:09;;;;;;;;;;;;;;;;;;1042372;28;3571;-58
2023/06/12 00:47:40;;;;;;;;;;;;;;;;;;1040484;28;3866;-56
2023/06/12 00:48:11;;;;;;;;;;;;;;;;;;1036496;28;3604;-56
2023/06/12 00:48:42;;;;;;;;;;;;;;;;;;1038822;28;4021;-57
2023/06/12 00:49:13;;;;;;;;;;;;;;;;;;1040860;28;3505;-48
2023/06/12 00:49:43;;;;;;;;;;;;;;;;;;1036555;28;4016;-55
2023/06/12 00:50:13;;;;;;;;;;;;;;;;;;1036983;28;4103;-57
2023/06/12 00:50:45;;;;;;;;;;;;;;;;;;1039194;28;3847;-53
2023/06/12 00:51:17;;;;;;;;;;;;;;;;;;1039030;28;1805;-51
2023/06/12 00:51:47;;;;;;;;;;;;;;;;;;1037561;28;4015;-54
2023/06/12 00:52:19;;;;;;;;;;;;;;;;;;1039099;28;3708;-51
2023/06/12 00:52:50;;;;;;;;;;;;;;;;;;1040216;28;4391;-52
2023/06/12 00:53:20;;;;;;;;;;;;;;;;;;1038862;28;3575;-55
2023/06/12 00:53:53;;;;;;;;;;;;;;;;;;1040297;28;3823;-53
2023/06/12 00:54:23;;;;;;;;;;;;;;;;;;1038459;28;4235;-55
2023/06/12 00:54:54;;;;;;;;;;;;;;;;;;1040865;28;3636;-54
2023/06/12 00:55:25;;;;;;;;;;;;;;;;;;1042674;28;4243;-55
2023/06/12 00:55:55;;;;;;;;;;;;;;;;;;1043055;28;3480;-51
2023/06/12 00:56:27;;;;;;;;;;;;;;;;;;1042704;28;3876;-55
2023/06/12 00:56:57;;;;;;;;;;;;;;;;;;1037516;28;3352;-53
2023/06/12 00:57:27;;;;;;;;;;;;;;;;;;1037409;28;4423;-55
2023/06/12 00:57:58;;;;;;;;;;;;;;;;;;1037268;28;3475;-54
2023/06/12 00:58:29;;;;;;;;;;;;;;;;;;1039206;28;4097;-56
2023/06/12 00:59:00;;;;;;;;;;;;;;;;;;1037714;28;4110;-54
2023/06/12 00:59:32;;;;;;;;;;;;;;;;;;1039253;28;3839;-53
2023/06/12 01:00:05;;;;;;;;;;;;;;;;;;1037657;28;3451;-55
2023/06/12 01:00:38;;;;;;;;;;;;;;;;;;1036573;28;5288;-54
2023/06/12 01:01:10;;;;;;;;;;;;;;;;;;1038171;28;3259;-53
2023/06/12 01:01:40;;;;;;;;;;;;;;;;;;1041666;28;3778;-54
2023/06/12 01:02:10;;;;;;;;;;;;;;;;;;1041790;28;2807;-54
2023/06/12 01:02:44;;;;;;;;;;;;;;;;;;1042546;28;3936;-52
2023/06/12 01:03:15;;;;;;;;;;;;;;;;;;1041970;28;3066;-56
2023/06/12 01:03:45;;;;;;;;;;;;;;;;;;1042872;28;4039;-51
2023/06/12 01:04:16;;;;;;;;;;;;;;;;;;1041923;28;3615;-52
2023/06/12 01:04:49;;;;;;;;;;;;;;;;;;1047256;28;4315;-53
2023/06/12 01:05:22;;;;;;;;;;;;;;;;;;1045508;28;3032;-54
2023/06/12 01:05:53;;;;;;;;;;;;;;;;;;1044581;28;3814;-56
2023/06/12 01:06:42;;;;;;;;;;;;;;;;;;1041033;28;3906;-55
2023/06/12 01:07:21;;;;;;;;;;;;;;;;;;1040992;28;3078;-52
2023/06/12 01:07:51;;;;;;;;;;;;;;;;;;1039702;28;4917;-54
2023/06/12 01:08:31;;;;;;;;;;;;;;;;;;1043933;28;1753;-55
2023/06/12 01:09:19;;;;;;;;;;;;;;;;;;1036170;28;3909;-52
2023/06/12 01:09:55;;;;;;;;;;;;;;;;;;1041810;28;3889;-56
2023/06/12 01:10:34;;;;;;;;;;;;;;;;;;1042721;28;3997;-51
2023/06/12 01:11:08;;;;;;;;;;;;;;;;;;1037888;28;3146;-53
2023/06/12 01:11:38;;;;;;;;;;;;;;;;;;1038800;28;4054;-55
2023/06/12 01:12:10;;;;;;;;;;;;;;;;;;1038033;28;2825;-51
2023/06/12 01:12:41;;;;;;;;;;;;;;;;;;1040726;28;3861;-56
2023/06/12 01:13:12;;;;;;;;;;;;;;;;;;1042856;28;1909;-52
2023/06/12 01:13:42;;;;;;;;;;;;;;;;;;1039025;28;4032;-55
2023/06/12 01:14:20;;;;;;;;;;;;;;;;;;1038843;28;2998;-49
2023/06/12 01:14:50;;;;;;;;;;;;;;;;;;1041929;28;4066;-56
2023/06/12 01:15:20;;;;;;;;;;;;;;;;;;1042632;28;3081;-54
2023/06/12 01:15:51;;;;;;;;;;;;;;;;;;1038886;28;4012;-56
2023/06/12 01:16:21;;;;;;;;;;;;;;;;;;1038486;28;3449;-53
2023/06/12 01:16:52;;;;;;;;;;;;;;;;;;1042655;28;4021;-55
2023/06/12 01:17:23;;;;;;;;;;;;;;;;;;1040952;28;4414;-54
2023/06/12 01:17:53;;;;;;;;;;;;;;;;;;1044046;28;1726;-53
2023/06/12 01:18:23;;;;;;;;;;;;;;;;;;1042474;28;3873;-55
2023/06/12 01:18:55;;;;;;;;;;;;;;;;;;1038357;28;3347;-55
2023/06/12 01:19:26;;;;;;;;;;;;;;;;;;1038290;28;5142;-54
2023/06/12 01:19:56;;;;;;;;;;;;;;;;;;1039686;28;1732;-55
2023/06/12 01:20:27;;;;;;;;;;;;;;;;;;1039723;28;4056;-56
2023/06/12 01:20:58;;;;;;;;;;;;;;;;;;1042443;28;2675;-57
2023/06/12 01:21:32;;;;;;;;;;;;;;;;;;1041868;28;4188;-56
2023/06/12 01:22:08;;;;;;;;;;;;;;;;;;1041379;28;2988;-52
2023/06/12 01:22:43;;;;;;;;;;;;;;;;;;1042477;28;3887;-53
2023/06/12 01:23:22;;;;;;;;;;;;;;;;;;1038885;28;1837;-55
2023/06/12 01:24:00;;;;;;;;;;;;;;;;;;1040854;28;3964;-54
2023/06/12 01:24:42;;;;;;;;;;;;;;;;;;1040678;28;4042;-55
2023/06/12 01:25:13;;;;;;;;;;;;;;;;;;1042625;28;3272;-55
2023/06/12 01:26:00;;;;;;;;;;;;;;;;;;1039515;28;4078;-51
2023/06/12 01:26:33;;;;;;;;;;;;;;;;;;1038993;28;3873;-57
2023/06/12 01:27:12;;;;;;;;;;;;;;;;;;1038636;28;3131;-57
2023/06/12 01:28:01;;;;;;;;;;;;;;;;;;1038244;28;3785;-52
2023/06/12 01:28:54;;;;;;;;;;;;;;;;;;1038655;28;3879;-57
2023/06/12 01:29:43;;;;;;;;;;;;;;;;;;1038365;28;3881;-56
2023/06/12 01:30:32;;;;;;;;;;;;;;;;;;1037472;28;2972;-54
2023/06/12 01:31:06;;;;;;;;;;;;;;;;;;1041668;28;3913;-53
2023/06/12 01:32:15;;;;;;;;;;;;;;;;;;1041525;28;4940;-57
2023/06/12 01:32:50;;;;;;;;;;;;;;;;;;1032588;28;3869;-54
2023/06/12 01:33:21;;;;;;;;;;;;;;;;;;1034755;28;1830;-56
2023/06/12 01:34:07;;;;;;;;;;;;;;;;;;1032896;28;4002;-52
2023/06/12 01:34:50;;;;;;;;;;;;;;;;;;1032527;28;3838;-52
2023/06/12 01:35:23;;;;;;;;;;;;;;;;;;1034438;28;3060;-53
2023/06/12 01:35:54;;;;;;;;;;;;;;;;;;1029011;28;3988;-58
2023/06/12 01:36:25;;;;;;;;;;;;;;;;;;1029238;28;4036;-56
2023/06/12 01:37:05;;;;;;;;;;;;;;;;;;1033128;28;4144;-51
2023/06/12 01:37:58;;;;;;;;;;;;;;;;;;1031616;28;3950;-58
2023/06/12 01:38:31;;;;;;;;;;;;;;;;;;1030801;28;3942;-52
2023/06/12 01:39:04;;;;;;;;;;;;;;;;;;1038856;28;1943;-54
2023/06/12 01:39:36;;;;;;;;;;;;;;;;;;1040479;28;4035;-55
2023/06/12 01:40:07;;;;;;;;;;;;;;;;;;1040218;28;3132;-54
2023/06/12 01:40:38;;;;;;;;;;;;;;;;;;1041264;28;4089;-54
2023/06/12 01:41:09;;;;;;;;;;;;;;;;;;1041357;28;3213;-56
2023/06/12 01:41:40;;;;;;;;;;;;;;;;;;1041007;28;3881;-54
2023/06/12 01:42:11;;;;;;;;;;;;;;;;;;1036725;28;3381;-57
2023/06/12 01:42:41;;;;;;;;;;;;;;;;;;1040515;28;4009;-54
2023/06/12 01:43:12;;;;;;;;;;;;;;;;;;1041870;28;2856;-58
2023/06/12 01:43:42;;;;;;;;;;;;;;;;;;1039564;28;4014;-52
2023/06/12 01:44:16;;;;;;;;;;;;;;;;;;1038880;28;2746;-50
2023/06/12 01:44:49;;;;;;;;;;;;;;;;;;1040573;28;3888;-55
2023/06/12 01:45:19;;;;;;;;;;;;;;;;;;1041129;28;3243;-51
2023/06/12 01:45:50;;;;;;;;;;;;;;;;;;1042783;28;3868;-55
2023/06/12 01:46:20;;;;;;;;;;;;;;;;;;1042306;28;3234;-57
2023/06/12 01:46:50;;;;;;;;;;;;;;;;;;1039027;28;3956;-51
2023/06/12 01:47:21;;;;;;;;;;;;;;;;;;1038484;28;2980;-54
2023/06/12 01:47:51;;;;;;;;;;;;;;;;;;1041635;28;3957;-55
2023/06/12 01:48:22;;;;;;;;;;;;;;;;;;1041306;28;3009;-52
2023/06/12 01:48:52;;;;;;;;;;;;;;;;;;1042598;28;3687;-54
2023/06/12 01:49:22;;;;;;;;;;;;;;;;;;1042572;28;4228;-52
2023/06/12 01:49:53;;;;;;;;;;;;;;;;;;1037875;28;2967;-55
2023/06/12 01:50:23;;;;;;;;;;;;;;;;;;1039299;28;3884;-56
2023/06/12 01:50:54;;;;;;;;;;;;;;;;;;1044002;28;1678;-53
2023/06/12 01:51:24;;;;;;;;;;;;;;;;;;1042635;28;4032;-55
2023/06/12 01:51:54;;;;;;;;;;;;;;;;;;1041484;28;2836;-54
2023/06/12 01:52:26;;;;;;;;;;;;;;;;;;1041786;28;4104;-52
2023/06/12 01:52:56;;;;;;;;;;;;;;;;;;1042382;28;3320;-53
2023/06/12 01:53:26;;;;;;;;;;;;;;;;;;1042167;28;4064;-56
2023/06/12 01:53:56;;;;;;;;;;;;;;;;;;1042125;28;2986;-57
2023/06/12 01:54:27;;;;;;;;;;;;;;;;;;1041608;28;3797;-55
2023/06/12 01:54:58;;;;;;;;;;;;;;;;;;1041903;28;2938;-55
2023/06/12 01:55:29;;;;;;;;;;;;;;;;;;1040593;28;3809;-57
2023/06/12 01:55:59;;;;;;;;;;;;;;;;;;1039338;28;1765;-53
2023/06/12 01:56:30;;;;;;;;;;;;;;;;;;1038614;28;3933;-54
2023/06/12 01:57:01;;;;;;;;;;;;;;;;;;1037506;28;2860;-53
2023/06/12 01:57:32;;;;;;;;;;;;;;;;;;1038556;28;3875;-54
2023/06/12 01:58:02;;;;;;;;;;;;;;;;;;1039016;28;1492;-55
2023/06/12 01:58:33;;;;;;;;;;;;;;;;;;1038904;28;4042;-52
2023/06/12 01:59:04;;;;;;;;;;;;;;;;;;1039221;28;1867;-56
2023/06/12 01:59:34;;;;;;;;;;;;;;;;;;1039205;28;4393;-55
2023/06/12 02:00:05;;;;;;;;;;;;;;;;;;1043289;28;1916;-55
2023/06/12 02:00:35;;;;;;;;;;;;;;;;;;1040181;28;4098;-54
2023/06/12 02:01:06;;;;;;;;;;;;;;;;;;1038282;28;1844;-55
2023/06/12 02:01:36;;;;;;;;;;;;;;;;;;1037090;28;3942;-56
2023/06/12 02:02:06;;;;;;;;;;;;;;;;;;1038555;28;1931;-57
2023/06/12 02:02:39;;;;;;;;;;;;;;;;;;1040067;28;3774;-54
2023/06/12 02:03:10;;;;;;;;;;;;;;;;;;1042736;28;1866;-55
2023/06/12 02:03:41;;;;;;;;;;;;;;;;;;1041165;28;3860;-55
2023/06/12 02:04:12;;;;;;;;;;;;;;;;;;1046325;28;1948;-55
2023/06/12 02:04:42;;;;;;;;;;;;;;;;;;1041945;28;3996;-55
2023/06/12 02:05:12;;;;;;;;;;;;;;;;;;1047149;28;3064;-54
2023/06/12 02:05:43;;;;;;;;;;;;;;;;;;1040702;28;3864;-56
2023/06/12 02:06:14;;;;;;;;;;;;;;;;;;1037438;28;2277;-54
2023/06/12 02:06:44;;;;;;;;;;;;;;;;;;1038663;28;3925;-54
2023/06/12 02:07:14;;;;;;;;;;;;;;;;;;1037735;28;2946;-54
2023/06/12 02:07:45;;;;;;;;;;;;;;;;;;1042046;28;3776;-57
2023/06/12 02:08:15;;;;;;;;;;;;;;;;;;1042832;28;1688;-55
2023/06/12 02:08:45;;;;;;;;;;;;;;;;;;1041917;28;4033;-56
2023/06/12 02:09:16;;;;;;;;;;;;;;;;;;1042179;28;2970;-50
2023/06/12 02:09:46;;;;;;;;;;;;;;;;;;1039396;28;4270;-53
2023/06/12 02:10:16;;;;;;;;;;;;;;;;;;1034003;28;3806;-55
2023/06/12 02:10:46;;;;;;;;;;;;;;;;;;1040848;28;3847;-54
2023/06/12 02:11:17;;;;;;;;;;;;;;;;;;1043305;28;1735;-51
2023/06/12 02:11:48;;;;;;;;;;;;;;;;;;1040380;28;4013;-51
2023/06/12 02:12:18;;;;;;;;;;;;;;;;;;1042947;28;2390;-56
2023/06/12 02:12:49;;;;;;;;;;;;;;;;;;1039130;28;4795;-55
2023/06/12 02:13:19;;;;;;;;;;;;;;;;;;1037966;28;3136;-52
2023/06/12 02:13:49;;;;;;;;;;;;;;;;;;1042465;28;3727;-54
2023/06/12 02:14:20;;;;;;;;;;;;;;;;;;1043580;28;2511;-56
2023/06/12 02:14:50;;;;;;;;;;;;;;;;;;1042711;28;4330;-54
2023/06/12 02:15:21;;;;;;;;;;;;;;;;;;1040613;28;3741;-54
2023/06/12 02:15:51;;;;;;;;;;;;;;;;;;1037967;28;3688;-56
2023/06/12 02:16:21;;;;;;;;;;;;;;;;;;1039274;28;1773;-55
2023/06/12 02:16:53;;;;;;;;;;;;;;;;;;1039917;28;3843;-56
2023/06/12 02:17:24;;;;;;;;;;;;;;;;;;1039445;28;4074;-53
2023/06/12 02:17:55;;;;;;;;;;;;;;;;;;1040244;28;3535;-56
2023/06/12 02:18:25;;;;;;;;;;;;;;;;;;1039652;28;4225;-58
2023/06/12 02:18:56;;;;;;;;;;;;;;;;;;1040146;28;3660;-56
2023/06/12 02:19:26;;;;;;;;;;;;;;;;;;1040228;28;4033;-57
2023/06/12 02:19:57;;;;;;;;;;;;;;;;;;1040713;28;5871;-54
2023/06/12 02:20:27;;;;;;;;;;;;;;;;;;1040224;28;4098;-56
2023/06/12 02:20:57;;;;;;;;;;;;;;;;;;1042668;28;3218;-58
2023/06/12 02:21:28;;;;;;;;;;;;;;;;;;1041418;28;3872;-54
2023/06/12 02:21:58;;;;;;;;;;;;;;;;;;1035805;28;3605;-55
2023/06/12 02:22:28;;;;;;;;;;;;;;;;;;1034548;28;4734;-55
2023/06/12 02:22:58;;;;;;;;;;;;;;;;;;1039671;28;3859;-55
2023/06/12 02:23:29;;;;;;;;;;;;;;;;;;1040566;28;4592;-52
2023/06/12 02:23:59;;;;;;;;;;;;;;;;;;1041205;28;3685;-52
2023/06/12 02:24:30;;;;;;;;;;;;;;;;;;1042591;28;3882;-58
2023/06/12 02:25:02;;;;;;;;;;;;;;;;;;1042134;28;3028;-55
2023/06/12 02:25:32;;;;;;;;;;;;;;;;;;1043376;28;4120;-50
2023/06/12 02:26:02;;;;;;;;;;;;;;;;;;1043174;28;3155;-53
2023/06/12 02:26:33;;;;;;;;;;;;;;;;;;1041393;28;3797;-54
2023/06/12 02:27:03;;;;;;;;;;;;;;;;;;1044624;28;3496;-50
2023/06/12 02:27:33;;;;;;;;;;;;;;;;;;1048083;28;4057;-54
2023/06/12 02:28:04;;;;;;;;;;;;;;;;;;1048572;28;1716;-58
2023/06/12 02:28:34;;;;;;;;;;;;;;;;;;1044663;28;4301;-53
2023/06/12 02:29:08;;;;;;;;;;;;;;;;;;1043445;28;3346;-55
2023/06/12 02:29:38;;;;;;;;;;;;;;;;;;1041828;28;4390;-53
2023/06/12 02:30:09;;;;;;;;;;;;;;;;;;1041949;28;3563;-53
2023/06/12 02:30:39;;;;;;;;;;;;;;;;;;1041754;28;4031;-55
2023/06/12 02:31:10;;;;;;;;;;;;;;;;;;1043237;28;3746;-54
2023/06/12 02:31:40;;;;;;;;;;;;;;;;;;1042790;28;3939;-56
2023/06/12 02:32:12;;;;;;;;;;;;;;;;;;1044158;28;1943;-52
2023/06/12 02:32:42;;;;;;;;;;;;;;;;;;1042552;28;3924;-52
2023/06/12 02:33:12;;;;;;;;;;;;;;;;;;1043901;28;3039;-50
2023/06/12 02:33:43;;;;;;;;;;;;;;;;;;1044189;28;4023;-52
2023/06/12 02:34:13;;;;;;;;;;;;;;;;;;1043561;28;3065;-51
2023/06/12 02:34:43;;;;;;;;;;;;;;;;;;1043585;28;3729;-55
2023/06/12 02:35:14;;;;;;;;;;;;;;;;;;1044242;28;3495;-55
2023/06/12 02:35:44;;;;;;;;;;;;;;;;;;1043985;28;3994;-55
2023/06/12 02:36:14;;;;;;;;;;;;;;;;;;1043560;28;3089;-56
2023/06/12 02:36:46;;;;;;;;;;;;;;;;;;1042282;28;4030;-57
2023/06/12 02:37:17;;;;;;;;;;;;;;;;;;1042844;28;3146;-53
2023/06/12 02:37:47;;;;;;;;;;;;;;;;;;1043685;28;4108;-57
2023/06/12 02:38:17;;;;;;;;;;;;;;;;;;1042474;28;3095;-55
2023/06/12 02:38:48;;;;;;;;;;;;;;;;;;1042939;28;4495;-54
2023/06/12 02:39:18;;;;;;;;;;;;;;;;;;1044171;28;2950;-57
2023/06/12 02:39:48;;;;;;;;;;;;;;;;;;1043234;28;3881;-55
2023/06/12 02:40:19;;;;;;;;;;;;;;;;;;1043222;28;3542;-56
2023/06/12 02:40:49;;;;;;;;;;;;;;;;;;1040926;28;4047;-58
2023/06/12 02:41:19;;;;;;;;;;;;;;;;;;1042156;28;3595;-57
2023/06/12 02:41:50;;;;;;;;;;;;;;;;;;1043183;28;4378;-52
2023/06/12 02:42:20;;;;;;;;;;;;;;;;;;1043783;28;1805;-56
2023/06/12 02:42:50;;;;;;;;;;;;;;;;;;1043899;28;3941;-54
2023/06/12 02:43:21;;;;;;;;;;;;;;;;;;1041957;28;3490;-56
2023/06/12 02:43:51;;;;;;;;;;;;;;;;;;1044215;28;4032;-55
2023/06/12 02:44:22;;;;;;;;;;;;;;;;;;1041941;28;3013;-56
2023/06/12 02:44:52;;;;;;;;;;;;;;;;;;1043561;28;3731;-51
2023/06/12 02:45:23;;;;;;;;;;;;;;;;;;1040346;28;4005;-55
2023/06/12 02:45:53;;;;;;;;;;;;;;;;;;1045824;28;3231;-52
2023/06/12 02:46:24;;;;;;;;;;;;;;;;;;1042476;28;4005;-55
2023/06/12 02:46:58;;;;;;;;;;;;;;;;;;1042954;28;3706;-56
2023/06/12 02:47:28;;;;;;;;;;;;;;;;;;1041157;28;3879;-58
2023/06/12 02:47:59;;;;;;;;;;;;;;;;;;1043737;28;2968;-55
2023/06/12 02:48:29;;;;;;;;;;;;;;;;;;1044059;28;4004;-56
2023/06/12 02:48:59;;;;;;;;;;;;;;;;;;1047960;28;2009;-56
2023/06/12 02:49:30;;;;;;;;;;;;;;;;;;1047845;28;4427;-56
2023/06/12 02:50:00;;;;;;;;;;;;;;;;;;1047492;28;2917;-54
2023/06/12 02:50:30;;;;;;;;;;;;;;;;;;1044624;28;4283;-56
2023/06/12 02:51:01;;;;;;;;;;;;;;;;;;1044625;28;3569;-56
2023/06/12 02:51:31;;;;;;;;;;;;;;;;;;1044283;28;4034;-54
2023/06/12 02:52:01;;;;;;;;;;;;;;;;;;1043126;28;3086;-54
2023/06/12 02:52:31;;;;;;;;;;;;;;;;;;1040079;28;4070;-54
2023/06/12 02:53:02;;;;;;;;;;;;;;;;;;1040433;28;3598;-55
2023/06/12 02:53:32;;;;;;;;;;;;;;;;;;1042052;28;4880;-56
2023/06/12 02:54:02;;;;;;;;;;;;;;;;;;1042687;28;3053;-52
2023/06/12 02:54:33;;;;;;;;;;;;;;;;;;1042572;28;3801;-55
2023/06/12 02:55:03;;;;;;;;;;;;;;;;;;1043310;28;3572;-53
2023/06/12 02:55:39;;;;;;;;;;;;;;;;;;1043357;28;3980;-54
2023/06/12 02:56:09;;;;;;;;;;;;;;;;;;1041632;28;3809;-57
2023/06/12 02:56:41;;;;;;;;;;;;;;;;;;1042141;28;3801;-58
2023/06/12 02:57:12;;;;;;;;;;;;;;;;;;1042445;28;3502;-55
2023/06/12 02:57:42;;;;;;;;;;;;;;;;;;1042560;28;4097;-55
2023/06/12 02:58:12;;;;;;;;;;;;;;;;;;1043708;28;3056;-52
2023/06/12 02:58:44;;;;;;;;;;;;;;;;;;1044038;28;4047;-53
2023/06/12 02:59:16;;;;;;;;;;;;;;;;;;1042434;28;3686;-54
2023/06/12 02:59:46;;;;;;;;;;;;;;;;;;1042782;28;3917;-56
2023/06/12 03:00:16;;;;;;;;;;;;;;;;;;1042989;28;3402;-55
2023/06/12 03:00:47;;;;;;;;;;;;;;;;;;1042490;28;3861;-54
2023/06/12 03:01:20;;;;;;;;;;;;;;;;;;1042460;28;3497;-57
2023/06/12 03:01:50;;;;;;;;;;;;;;;;;;1043541;28;3740;-54
2023/06/12 03:02:21;;;;;;;;;;;;;;;;;;1042357;28;3441;-57
2023/06/12 03:02:55;;;;;;;;;;;;;;;;;;1039833;28;4074;-51
2023/06/12 03:03:28;;;;;;;;;;;;;;;;;;1039990;28;3793;-54
2023/06/12 03:03:59;;;;;;;;;;;;;;;;;;1039739;28;3381;-58
2023/06/12 03:04:32;;;;;;;;;;;;;;;;;;1040282;28;3967;-59
2023/06/12 03:05:04;;;;;;;;;;;;;;;;;;1041691;28;3434;-52
2023/06/12 03:05:36;;;;;;;;;;;;;;;;;;1042583;28;6004;-53
2023/06/12 03:06:06;;;;;;;;;;;;;;;;;;1043288;28;3050;-52
2023/06/12 03:06:36;;;;;;;;;;;;;;;;;;1042673;28;4038;-56
2023/06/12 03:07:07;;;;;;;;;;;;;;;;;;1043889;28;1897;-58
2023/06/12 03:07:38;;;;;;;;;;;;;;;;;;1043627;28;4069;-56
2023/06/12 03:08:08;;;;;;;;;;;;;;;;;;1040535;28;3759;-55
2023/06/12 03:08:39;;;;;;;;;;;;;;;;;;1043703;28;4010;-52
2023/06/12 03:09:09;;;;;;;;;;;;;;;;;;1045257;28;1703;-55
2023/06/12 03:09:40;;;;;;;;;;;;;;;;;;1044696;28;4057;-55
2023/06/12 03:10:10;;;;;;;;;;;;;;;;;;1042730;28;3671;-55
2023/06/12 03:10:40;;;;;;;;;;;;;;;;;;1043787;28;4059;-51
2023/06/12 03:11:10;;;;;;;;;;;;;;;;;;1042662;28;3733;-55
2023/06/12 03:11:42;;;;;;;;;;;;;;;;;;1041942;28;4169;-55
2023/06/12 03:12:12;;;;;;;;;;;;;;;;;;1041554;28;3981;-55
2023/06/12 03:12:42;;;;;;;;;;;;;;;;;;1043136;28;3784;-56
2023/06/12 03:13:13;;;;;;;;;;;;;;;;;;1041485;28;3593;-55
2023/06/12 03:13:43;;;;;;;;;;;;;;;;;;1042698;28;4012;-56
2023/06/12 03:14:13;;;;;;;;;;;;;;;;;;1045023;28;2680;-54
2023/06/12 03:14:44;;;;;;;;;;;;;;;;;;1042939;28;3918;-58
2023/06/12 03:15:15;;;;;;;;;;;;;;;;;;1043260;28;3335;-55
2023/06/12 03:15:45;;;;;;;;;;;;;;;;;;1040983;28;3997;-52
2023/06/12 03:16:16;;;;;;;;;;;;;;;;;;1044254;28;2925;-54
2023/06/12 03:16:48;;;;;;;;;;;;;;;;;;1043717;28;4481;-52
2023/06/12 03:17:19;;;;;;;;;;;;;;;;;;1044327;28;2887;-55
2023/06/12 03:17:49;;;;;;;;;;;;;;;;;;1041882;28;4239;-55
2023/06/12 03:18:19;;;;;;;;;;;;;;;;;;1041499;28;3788;-54
2023/06/12 03:18:49;;;;;;;;;;;;;;;;;;1042215;28;4866;-55
2023/06/12 03:19:20;;;;;;;;;;;;;;;;;;1043901;28;1824;-56
2023/06/12 03:19:50;;;;;;;;;;;;;;;;;;1043843;28;3952;-53
2023/06/12 03:20:24;;;;;;;;;;;;;;;;;;1040160;28;3524;-50
2023/06/12 03:20:55;;;;;;;;;;;;;;;;;;1040712;28;3882;-54
2023/06/12 03:21:25;;;;;;;;;;;;;;;;;;1040586;28;3930;-55
2023/06/12 03:21:55;;;;;;;;;;;;;;;;;;1041981;28;3917;-55
2023/06/12 03:22:26;;;;;;;;;;;;;;;;;;1042441;28;3805;-55
2023/06/12 03:22:56;;;;;;;;;;;;;;;;;;1041715;28;3853;-54
2023/06/12 03:23:26;;;;;;;;;;;;;;;;;;1040173;28;3962;-52
2023/06/12 03:23:56;;;;;;;;;;;;;;;;;;1041938;28;3828;-57
2023/06/12 03:24:29;;;;;;;;;;;;;;;;;;1040686;28;4095;-55
2023/06/12 03:24:59;;;;;;;;;;;;;;;;;;1043044;28;3318;-52
2023/06/12 03:25:29;;;;;;;;;;;;;;;;;;1043751;28;4392;-57
2023/06/12 03:26:00;;;;;;;;;;;;;;;;;;1043080;28;2989;-53
2023/06/12 03:26:31;;;;;;;;;;;;;;;;;;1041245;28;4052;-56
2023/06/12 03:27:02;;;;;;;;;;;;;;;;;;1040648;28;3645;-54
2023/06/12 03:27:32;;;;;;;;;;;;;;;;;;1040417;28;4054;-56
2023/06/12 03:28:03;;;;;;;;;;;;;;;;;;1045056;28;3602;-51
2023/06/12 03:28:36;;;;;;;;;;;;;;;;;;1042347;28;4055;-54
2023/06/12 03:29:07;;;;;;;;;;;;;;;;;;1042249;28;2836;-51
2023/06/12 03:29:37;;;;;;;;;;;;;;;;;;1042404;28;4376;-54
2023/06/12 03:30:08;;;;;;;;;;;;;;;;;;1040463;28;3696;-56
2023/06/12 03:30:38;;;;;;;;;;;;;;;;;;1042689;28;4408;-50
2023/06/12 03:31:08;;;;;;;;;;;;;;;;;;1042504;28;4759;-57
2023/06/12 03:31:39;;;;;;;;;;;;;;;;;;1044232;28;3788;-53
2023/06/12 03:32:09;;;;;;;;;;;;;;;;;;1039946;28;3741;-53
2023/06/12 03:32:40;;;;;;;;;;;;;;;;;;1041969;28;3773;-56
2023/06/12 03:33:12;;;;;;;;;;;;;;;;;;1043429;28;3554;-55
2023/06/12 03:33:42;;;;;;;;;;;;;;;;;;1042442;28;4109;-51
2023/06/12 03:34:15;;;;;;;;;;;;;;;;;;1043773;28;2765;-51
2023/06/12 03:34:47;;;;;;;;;;;;;;;;;;1043739;28;4072;-54
2023/06/12 03:35:17;;;;;;;;;;;;;;;;;;1042498;28;1865;-57
2023/06/12 03:35:47;;;;;;;;;;;;;;;;;;1042138;28;4826;-54
2023/06/12 03:36:18;;;;;;;;;;;;;;;;;;1038875;28;3576;-54
2023/06/12 03:36:48;;;;;;;;;;;;;;;;;;1040927;28;5094;-54
2023/06/12 03:37:18;;;;;;;;;;;;;;;;;;1039481;28;3692;-55
2023/06/12 03:37:49;;;;;;;;;;;;;;;;;;1040925;28;4078;-56
2023/06/12 03:38:19;;;;;;;;;;;;;;;;;;1039218;28;3676;-55
2023/06/12 03:38:50;;;;;;;;;;;;;;;;;;1039154;28;3819;-53
2023/06/12 03:39:20;;;;;;;;;;;;;;;;;;1042276;28;4959;-50
2023/06/12 03:39:50;;;;;;;;;;;;;;;;;;1041568;28;3995;-54